Time;durP1;ratioP1;P1;durP2;ratioP2;P2;SDS_P1;SDS_P2;PMS_P1;PMS_P2;Temp;Humidity;BMP_temperature;BMP_pressure;BME280_temperature;BME280_humidity;BME280_pressure;Samples;Min_cycle;Max_cycle;Signal;HPM_P1;HPM_P2
2021/01/04 00:02:07;;;;;;;31.25;18.70;;;2.80;99.90;;;;;;5030357;28;20029;-78
2021/01/04 00:05:00;;;;;;;31.75;17.92;;;2.80;99.90;;;;;;5032187;28;20034;-78
2021/01/04 00:07:59;;;;;;;29.05;17.80;;;2.80;99.90;;;;;;5031427;28;20119;-78
2021/01/04 00:11:03;;;;;;;31.20;18.08;;;2.70;99.90;;;;;;5026178;28;20071;-78
2021/01/04 00:14:02;;;;;;;28.23;17.42;;;2.70;99.90;;;;;;5026538;28;20046;-77
2021/01/04 00:16:34;;;;;;;32.65;18.20;;;2.70;99.90;;;;;;5030973;28;20036;-77
2021/01/04 00:19:18;;;;;;;30.00;18.23;;;2.70;99.90;;;;;;5036614;28;20025;-78
2021/01/04 00:21:55;;;;;;;27.92;16.55;;;2.70;99.90;;;;;;5028669;28;20029;-77
2021/01/04 00:24:42;;;;;;;33.30;18.33;;;2.90;99.90;;;;;;5034370;28;20045;-77
2021/01/04 00:27:19;;;;;;;28.70;18.05;;;2.70;99.90;;;;;;5025248;28;20040;-77
2021/01/04 00:29:45;;;;;;;31.08;18.08;;;2.70;99.90;;;;;;5029805;28;20044;-77
2021/01/04 00:32:22;;;;;;;30.58;18.13;;;2.70;99.90;;;;;;5025340;28;20029;-77
2021/01/04 00:34:52;;;;;;;27.83;16.63;;;2.70;99.90;;;;;;5025546;28;20556;-77
2021/01/04 00:37:35;;;;;;;27.90;17.65;;;2.70;99.90;;;;;;5027528;28;20427;-77
2021/01/04 00:40:05;;;;;;;26.65;17.17;;;2.70;99.90;;;;;;5031093;28;20399;-77
2021/01/04 00:42:33;;;;;;;29.48;17.63;;;2.70;99.90;;;;;;5028001;28;20064;-77
2021/01/04 00:45:27;;;;;;;30.15;17.20;;;4.80;99.90;;;;;;5034691;28;20079;-77
2021/01/04 00:47:59;;;;;;;38.13;20.65;;;2.70;99.90;;;;;;5030538;28;20048;-77
2021/01/04 00:50:41;;;;;;;30.63;18.25;;;3.30;99.90;;;;;;5035091;28;20041;-77
2021/01/04 00:53:18;;;;;;;29.70;17.33;;;2.70;99.90;;;;;;5034366;28;20474;-78
2021/01/04 00:55:58;;;;;;;30.17;17.98;;;2.70;99.90;;;;;;5026437;28;20037;-76
2021/01/04 00:58:38;;;;;;;32.00;17.90;;;2.70;99.90;;;;;;5027225;28;20065;-77
2021/01/04 01:01:15;;;;;;;28.08;17.33;;;2.70;99.90;;;;;;5043149;28;20487;-76
2021/01/04 01:04:15;;;;;;;27.95;16.10;;;2.70;99.90;;;;;;5028900;28;20060;-77
2021/01/04 01:06:57;;;;;;;22.63;14.45;;;2.80;99.90;;;;;;5030846;28;20454;-78
2021/01/04 01:09:23;;;;;;;26.70;15.63;;;2.80;99.90;;;;;;5029862;28;20045;-77
2021/01/04 01:12:07;;;;;;;27.25;15.95;;;2.80;99.90;;;;;;5031080;28;20049;-78
2021/01/04 01:14:50;;;;;;;23.45;14.65;;;2.80;99.90;;;;;;5033656;28;20457;-76
2021/01/04 01:17:50;;;;;;;25.42;15.80;;;2.80;99.90;;;;;;5020568;28;20663;-77
2021/01/04 01:20:18;;;;;;;25.20;15.45;;;2.80;99.90;;;;;;5049476;28;20053;-76
2021/01/04 01:22:45;;;;;;;24.73;15.07;;;2.80;99.90;;;;;;5020665;28;20041;-77
2021/01/04 01:25:16;;;;;;;26.00;15.00;;;2.80;99.90;;;;;;5028848;28;20407;-77
2021/01/04 01:28:19;;;;;;;25.10;15.90;;;2.70;99.90;;;;;;5029940;28;20033;-76
2021/01/04 01:31:12;;;;;;;23.08;14.60;;;2.70;99.90;;;;;;5022288;28;20494;-77
2021/01/04 01:34:03;;;;;;;18.92;12.40;;;2.70;99.90;;;;;;5023512;28;20033;-77
2021/01/04 01:36:32;;;;;;;22.33;13.18;;;2.70;99.90;;;;;;5044454;28;20467;-77
2021/01/04 01:39:25;;;;;;;19.75;12.80;;;2.80;99.90;;;;;;5027368;28;20031;-77
2021/01/04 01:42:28;;;;;;;17.30;10.88;;;2.80;99.90;;;;;;5023485;28;20038;-77
2021/01/04 01:45:03;;;;;;;39.25;17.73;;;2.90;99.90;;;;;;5024483;28;20033;-77
2021/01/04 01:48:02;;;;;;;19.30;12.13;;;2.90;99.90;;;;;;5024785;28;20021;-78
2021/01/04 01:51:10;;;;;;;18.30;11.50;;;2.90;99.90;;;;;;5022710;28;20072;-77
2021/01/04 01:53:56;;;;;;;18.98;12.07;;;2.90;99.90;;;;;;5041817;28;20561;-76
2021/01/04 01:56:45;;;;;;;19.23;12.40;;;2.90;99.90;;;;;;5027471;28;20037;-77
2021/01/04 01:59:34;;;;;;;21.17;12.85;;;2.80;99.90;;;;;;5027731;28;20052;-77
2021/01/04 02:02:11;;;;;;;18.58;12.02;;;2.90;99.90;;;;;;5028464;28;20044;-77
2021/01/04 02:04:37;;;;;;;18.60;12.60;;;2.80;99.90;;;;;;5026959;28;20036;-78
2021/01/04 02:07:14;;;;;;;20.05;12.77;;;2.80;99.90;;;;;;5026375;28;20037;-77
2021/01/04 02:09:47;;;;;;;20.60;12.98;;;2.80;99.90;;;;;;5026645;28;20038;-76
2021/01/04 02:12:38;;;;;;;19.02;12.40;;;2.70;99.90;;;;;;5028717;28;20037;-77
2021/01/04 02:15:16;;;;;;;;;;;2.70;99.90;;;;;;5044418;28;20107;-77
2021/01/04 02:18:06;;;;;;;19.65;11.88;;;2.80;99.90;;;;;;5031520;28;20004;-77
2021/01/04 02:20:56;;;;;;;24.67;13.60;;;2.80;99.90;;;;;;5027658;28;20051;-77
2021/01/04 02:23:35;;;;;;;17.57;11.67;;;2.80;99.90;;;;;;5020577;28;20037;-77
2021/01/04 02:26:12;;;;;;;20.23;11.48;;;2.80;99.90;;;;;;5021792;28;20104;-77
2021/01/04 02:28:52;;;;;;;17.55;11.43;;;2.80;99.90;;;;;;5027254;28;20029;-77
2021/01/04 02:31:18;;;;;;;16.83;10.57;;;2.80;99.90;;;;;;5024570;28;20084;-77
2021/01/04 02:33:44;;;;;;;16.25;10.60;;;2.80;99.90;;;;;;5023925;28;20037;-78
2021/01/04 02:36:09;;;;;;;16.45;11.38;;;2.80;99.90;;;;;;5027253;28;20045;-77
2021/01/04 02:38:43;;;;;;;15.02;10.90;;;2.70;99.90;;;;;;5032837;28;20037;-77
2021/01/04 02:41:10;;;;;;;15.65;10.05;;;2.80;99.90;;;;;;5027215;28;20407;-77
2021/01/04 02:43:35;;;;;;;16.23;10.90;;;2.70;99.90;;;;;;5041665;28;20095;-77
2021/01/04 02:46:07;;;;;;;15.18;10.35;;;2.80;99.90;;;;;;5012690;28;20068;-76
2021/01/04 02:48:38;;;;;;;17.33;10.13;;;2.80;99.90;;;;;;5042920;28;20041;-77
2021/01/04 02:51:17;;;;;;;15.10;10.18;;;2.80;99.90;;;;;;5028968;28;20037;-77
2021/01/04 02:54:02;;;;;;;16.13;10.88;;;2.80;99.90;;;;;;5024158;28;20163;-76
2021/01/04 02:56:43;;;;;;;19.38;10.68;;;2.80;99.90;;;;;;5026650;28;20108;-77
2021/01/04 02:59:24;;;;;;;15.30;10.20;;;2.80;99.90;;;;;;5030617;28;20017;-76
2021/01/04 03:02:21;;;;;;;13.40;9.60;;;2.80;99.90;;;;;;5029579;28;20055;-77
2021/01/04 03:04:48;;;;;;;16.48;10.52;;;2.80;99.90;;;;;;5031025;28;20585;-77
2021/01/04 03:07:35;;;;;;;18.08;11.10;;;2.80;99.90;;;;;;5045046;28;20077;-77
2021/01/04 03:10:16;;;;;;;16.75;10.75;;;2.80;99.90;;;;;;5042815;28;20041;-77
2021/01/04 03:12:41;;;;;;;;;;;2.80;99.90;;;;;;5021116;28;20136;-77
2021/01/04 03:15:07;;;;;;;18.02;11.13;;;2.80;99.90;;;;;;5025629;28;20040;-77
2021/01/04 03:17:36;;;;;;;16.08;10.43;;;2.70;99.90;;;;;;5018129;28;21336;-75
2021/01/04 03:20:07;;;;;;;17.33;11.15;;;2.70;99.90;;;;;;5036094;28;20091;-76
2021/01/04 03:22:33;;;;;;;14.48;9.95;;;2.70;99.90;;;;;;5026316;28;20448;-76
2021/01/04 03:25:00;;;;;;;15.73;10.38;;;2.70;99.90;;;;;;5009755;28;20068;-75
2021/01/04 03:27:31;;;;;;;16.13;11.18;;;2.70;99.90;;;;;;4988317;28;20041;-76
2021/01/04 03:29:57;;;;;;;16.90;10.93;;;2.70;99.90;;;;;;5029621;28;20045;-76
2021/01/04 03:32:22;;;;;;;17.05;10.50;;;2.70;99.90;;;;;;5029503;28;20030;-75
2021/01/04 03:34:49;;;;;;;16.70;11.05;;;2.70;99.90;;;;;;5028787;28;20121;-74
2021/01/04 03:37:16;;;;;;;16.45;10.98;;;2.70;99.90;;;;;;5036997;28;20032;-76
2021/01/04 03:39:43;;;;;;;18.95;11.43;;;2.70;99.90;;;;;;5030602;28;20021;-76
2021/01/04 03:42:11;;;;;;;18.40;11.60;;;2.60;99.90;;;;;;5031117;28;20029;-75
2021/01/04 03:44:36;;;;;;;15.60;10.60;;;2.60;99.90;;;;;;5019079;28;20121;-76
2021/01/04 03:47:03;;;;;;;17.08;11.27;;;2.70;99.90;;;;;;5029552;28;20140;-76
2021/01/04 03:49:28;;;;;;;16.48;10.15;;;2.60;99.90;;;;;;5032602;28;20041;-76
2021/01/04 03:51:57;;;;;;;17.70;10.80;;;2.70;99.90;;;;;;5011043;28;20138;-75
2021/01/04 03:54:24;;;;;;;15.82;10.20;;;2.70;99.90;;;;;;5026381;28;20045;-76
2021/01/04 03:56:49;;;;;;;15.82;10.88;;;2.70;99.90;;;;;;5021724;28;20042;-75
2021/01/04 03:59:15;;;;;;;17.55;11.27;;;2.70;99.90;;;;;;5025485;28;20064;-76
2021/01/04 04:01:52;;;;;;;18.55;11.48;;;2.70;99.90;;;;;;5029458;28;20029;-77
2021/01/04 04:04:20;;;;;;;17.60;10.82;;;2.70;99.90;;;;;;5031222;28;20041;-77
2021/01/04 04:06:46;;;;;;;18.70;11.05;;;2.70;99.90;;;;;;5032212;28;20045;-76
2021/01/04 04:09:14;;;;;;;18.92;12.32;;;2.60;99.90;;;;;;5029093;28;20042;-76
2021/01/04 04:11:40;;;;;;;18.80;12.27;;;2.60;99.90;;;;;;5030919;28;20091;-75
2021/01/04 04:14:06;;;;;;;17.77;11.02;;;2.70;99.90;;;;;;5031346;28;20464;-76
2021/01/04 04:16:32;;;;;;;18.13;11.65;;;2.70;99.90;;;;;;5030849;28;20122;-75
2021/01/04 04:18:58;;;;;;;14.93;10.35;;;2.70;99.90;;;;;;5028027;28;20095;-76
2021/01/04 04:21:24;;;;;;;19.73;11.75;;;2.70;99.90;;;;;;5033518;28;20045;-75
2021/01/04 04:23:52;;;;;;;19.27;11.50;;;2.70;99.90;;;;;;5027534;28;20383;-77
2021/01/04 04:26:24;;;;;;;16.42;11.32;;;2.70;99.90;;;;;;5032244;28;20099;-75
2021/01/04 04:28:51;;;;;;;20.13;12.90;;;2.70;99.90;;;;;;5029427;28;20048;-76
2021/01/04 04:31:17;;;;;;;18.50;11.95;;;2.60;99.90;;;;;;5032333;28;20030;-76
2021/01/04 04:33:44;;;;;;;17.77;12.18;;;2.60;99.90;;;;;;5025289;28;20620;-74
2021/01/04 04:36:17;;;;;;;17.40;11.98;;;2.60;99.90;;;;;;5033607;28;20029;-76
2021/01/04 04:38:42;;;;;;;18.25;12.55;;;2.60;99.90;;;;;;5006920;28;20041;-76
2021/01/04 04:41:21;;;;;;;17.55;12.00;;;2.60;99.90;;;;;;5028293;28;20083;-76
2021/01/04 04:43:49;;;;;;;17.40;11.55;;;2.60;99.90;;;;;;5031074;28;20037;-76
2021/01/04 04:46:36;;;;;;;16.23;11.45;;;2.60;99.90;;;;;;5027196;28;20084;-76
2021/01/04 04:49:27;;;;;;;16.85;11.32;;;2.70;99.90;;;;;;5032808;28;20099;-75
2021/01/04 04:52:48;;;;;;;18.15;11.82;;;2.60;99.90;;;;;;5028816;28;20487;-76
2021/01/04 04:55:48;;;;;;;17.45;10.55;;;2.60;99.90;;;;;;4998900;28;20053;-76
2021/01/04 04:58:32;;;;;;;16.25;11.13;;;2.60;99.90;;;;;;5029841;28;20498;-76
2021/01/04 05:01:26;;;;;;;16.90;10.75;;;2.60;99.90;;;;;;5018964;28;20041;-77
2021/01/04 05:04:04;;;;;;;17.30;10.48;;;2.70;99.90;;;;;;5028856;28;20442;-76
2021/01/04 05:06:54;;;;;;;15.98;10.50;;;2.70;99.90;;;;;;5025562;28;20491;-76
2021/01/04 05:09:20;;;;;;;17.17;10.38;;;2.60;99.90;;;;;;5028571;28;20068;-76
2021/01/04 05:12:03;;;;;;;17.08;11.38;;;2.60;99.90;;;;;;5023898;28;20163;-77
2021/01/04 05:14:31;;;;;;;15.98;10.52;;;2.60;99.90;;;;;;5021753;28;20048;-75
2021/01/04 05:16:59;;;;;;;15.00;10.05;;;2.60;99.90;;;;;;5027518;28;20029;-75
2021/01/04 05:19:37;;;;;;;15.45;10.55;;;2.60;99.90;;;;;;5032469;28;20021;-76
2021/01/04 05:22:21;;;;;;;16.95;10.25;;;2.70;99.90;;;;;;5032916;28;20449;-76
2021/01/04 05:25:17;;;;;;;15.32;10.90;;;2.70;99.90;;;;;;5026166;28;20079;-76
2021/01/04 05:28:29;;;;;;;16.00;10.60;;;2.70;99.90;;;;;;5032340;28;20143;-76
2021/01/04 05:31:18;;;;;;;16.73;11.00;;;2.60;99.90;;;;;;5021098;28;20071;-76
2021/01/04 05:34:10;;;;;;;15.68;10.63;;;2.60;99.90;;;;;;5030103;28;20116;-76
2021/01/04 05:36:49;;;;;;;15.55;9.95;;;2.60;99.90;;;;;;5032907;28;20037;-76
2021/01/04 05:39:21;;;;;;;15.25;10.43;;;2.60;99.90;;;;;;5020542;28;20029;-77
2021/01/04 05:41:53;;;;;;;16.15;10.63;;;2.60;99.90;;;;;;5030871;28;20025;-75
2021/01/04 05:44:48;;;;;;;16.10;10.18;;;2.60;99.90;;;;;;5037914;28;20037;-76
2021/01/04 05:47:21;;;;;;;13.75;9.73;;;2.70;99.90;;;;;;5025437;28;20045;-76
2021/01/04 05:49:58;;;;;;;15.77;10.40;;;2.60;99.90;;;;;;5027586;28;20503;-76
2021/01/04 05:52:25;;;;;;;16.52;10.40;;;2.60;99.90;;;;;;5027442;28;20348;-75
2021/01/04 05:54:51;;;;;;;17.30;10.80;;;2.60;99.90;;;;;;5027654;28;20025;-76
2021/01/04 05:57:17;;;;;;;16.27;10.73;;;2.60;99.90;;;;;;5017860;28;20505;-76
2021/01/04 05:59:53;;;;;;;16.15;10.50;;;2.60;99.90;;;;;;5020970;28;20108;-77
2021/01/04 06:02:35;;;;;;;17.25;11.40;;;2.60;99.90;;;;;;5023096;28;20033;-78
2021/01/04 06:05:10;;;;;;;17.60;11.85;;;4.40;99.90;;;;;;5022692;28;20476;-76
2021/01/04 06:07:41;;;;;;;17.40;11.18;;;2.70;99.90;;;;;;5023182;28;20045;-76
2021/01/04 06:10:17;;;;;;;16.23;10.85;;;2.60;99.90;;;;;;5024476;28;20065;-76
2021/01/04 06:12:47;;;;;;;16.70;10.48;;;2.60;99.90;;;;;;5022732;28;20045;-75
2021/01/04 06:15:12;;;;;;;16.60;11.00;;;2.60;99.90;;;;;;5026545;28;20044;-77
2021/01/04 06:17:42;;;;;;;16.00;10.98;;;2.50;99.90;;;;;;5027485;28;20525;-77
2021/01/04 06:20:46;;;;;;;16.65;11.30;;;2.60;99.90;;;;;;5040791;28;20037;-76
2021/01/04 06:23:20;;;;;;;16.30;10.95;;;2.60;99.90;;;;;;5022150;28;20056;-76
2021/01/04 06:25:52;;;;;;;15.93;10.95;;;2.60;99.90;;;;;;5027436;28;20106;-76
2021/01/04 06:28:17;;;;;;;17.65;11.00;;;2.60;99.90;;;;;;5029069;28;20037;-78
2021/01/04 06:30:43;;;;;;;17.60;11.15;;;2.60;99.90;;;;;;5023752;28;20041;-77
2021/01/04 06:33:25;;;;;;;16.10;10.40;;;2.70;99.90;;;;;;5024642;28;20117;-77
2021/01/04 06:36:01;;;;;;;17.20;11.00;;;2.60;99.90;;;;;;5022436;28;20026;-78
2021/01/04 06:38:29;;;;;;;15.98;10.70;;;2.60;99.90;;;;;;5023512;28;20495;-77
2021/01/04 06:40:55;;;;;;;16.30;10.02;;;2.70;99.90;;;;;;5026532;28;20029;-77
2021/01/04 06:43:33;;;;;;;15.27;10.48;;;2.70;99.90;;;;;;5029113;28;20036;-77
2021/01/04 06:46:36;;;;;;;16.02;10.63;;;2.70;99.90;;;;;;5031048;28;20033;-77
2021/01/04 06:49:17;;;;;;;14.93;9.65;;;2.80;99.90;;;;;;5027865;28;20495;-77
2021/01/04 06:52:12;;;;;;;14.00;9.15;;;2.80;99.90;;;;;;5027503;28;20037;-76
2021/01/04 06:54:50;;;;;;;15.40;9.75;;;2.80;99.90;;;;;;5008678;28;20340;-76
2021/01/04 06:57:52;;;;;;;16.27;10.65;;;2.80;99.90;;;;;;5025429;28;20462;-77
2021/01/04 07:00:33;;;;;;;16.60;10.23;;;2.80;99.90;;;;;;5024468;28;20033;-77
2021/01/04 07:03:39;;;;;;;15.65;9.85;;;2.80;99.90;;;;;;5027386;28;20503;-77
2021/01/04 07:06:35;;;;;;;17.73;10.77;;;2.80;99.90;;;;;;5025061;28;20029;-77
2021/01/04 07:09:17;;;;;;;14.73;9.80;;;2.90;99.90;;;;;;5026474;28;20029;-76
2021/01/04 07:11:59;;;;;;;15.95;10.43;;;2.80;99.90;;;;;;5027507;28;20511;-78
2021/01/04 07:14:45;;;;;;;17.58;10.55;;;2.90;99.90;;;;;;5024425;28;20057;-78
2021/01/04 07:17:49;;;;;;;17.20;10.50;;;2.80;99.90;;;;;;4987018;28;20505;-76
2021/01/04 07:20:15;;;;;;;17.83;11.70;;;2.80;99.90;;;;;;5025245;28;20030;-76
2021/01/04 07:22:58;;;;;;;15.38;10.13;;;2.80;99.90;;;;;;5026541;28;20075;-77
2021/01/04 07:25:43;;;;;;;16.35;10.48;;;2.80;99.90;;;;;;5024993;28;20026;-77
2021/01/04 07:28:24;;;;;;;17.05;10.30;;;2.80;99.90;;;;;;5024647;28;20045;-77
2021/01/04 07:30:54;;;;;;;18.60;11.40;;;2.80;99.90;;;;;;5044144;28;20474;-77
2021/01/04 07:33:39;;;;;;;18.47;11.07;;;2.80;99.90;;;;;;5026555;28;20487;-77
2021/01/04 07:36:05;;;;;;;17.05;10.15;;;2.90;99.90;;;;;;5026609;28;20049;-77
2021/01/04 07:39:00;;;;;;;15.98;10.18;;;2.80;99.90;;;;;;5025247;28;20545;-77
2021/01/04 07:41:35;;;;;;;16.63;10.48;;;2.90;99.90;;;;;;5025848;28;20029;-76
2021/01/04 07:44:31;;;;;;;16.10;10.43;;;2.90;99.90;;;;;;5029274;28;20041;-76
2021/01/04 07:47:31;;;;;;;18.85;11.32;;;2.90;99.90;;;;;;5021135;28;20038;-76
2021/01/04 07:50:18;;;;;;;17.85;11.35;;;2.90;99.90;;;;;;5028988;28;20053;-77
2021/01/04 07:53:05;;;;;;;17.98;11.02;;;2.90;99.90;;;;;;5033955;28;20029;-76
2021/01/04 07:56:07;;;;;;;21.85;12.18;;;2.80;99.90;;;;;;5018127;28;20029;-77
2021/01/04 07:58:33;;;;;;;19.40;11.50;;;2.90;99.90;;;;;;4998941;28;20226;-76
2021/01/04 08:01:13;;;;;;;20.00;11.57;;;2.90;99.90;;;;;;5025774;28;20849;-77
2021/01/04 08:04:19;;;;;;;18.23;11.35;;;2.90;99.90;;;;;;5026234;28;20029;-76
2021/01/04 08:06:54;;;;;;;17.85;10.80;;;2.90;99.90;;;;;;5022981;28;20054;-76
2021/01/04 08:09:32;;;;;;;17.10;11.00;;;2.90;99.90;;;;;;5020302;28;20049;-76
2021/01/04 08:12:10;;;;;;;19.95;12.07;;;2.90;99.90;;;;;;5012702;28;20399;-77
2021/01/04 08:15:03;;;;;;;19.17;11.60;;;2.90;99.90;;;;;;5017711;28;20037;-76
2021/01/04 08:17:46;;;;;;;21.65;12.48;;;2.90;99.90;;;;;;5008613;28;20044;-77
2021/01/04 08:20:13;;;;;;;19.60;12.23;;;3.00;99.90;;;;;;5040314;28;20036;-77
2021/01/04 08:23:03;;;;;;;23.10;12.98;;;3.00;99.90;;;;;;5030651;28;20045;-76
2021/01/04 08:25:29;;;;;;;22.10;12.88;;;2.90;99.90;;;;;;5024931;28;20092;-77
2021/01/04 08:28:13;;;;;;;21.48;12.65;;;2.90;99.90;;;;;;5023860;28;20099;-78
2021/01/04 08:30:57;;;;;;;23.75;12.98;;;2.90;99.90;;;;;;5039770;28;20053;-78
2021/01/04 08:33:40;;;;;;;23.13;13.57;;;3.00;99.90;;;;;;5035590;28;20033;-79
2021/01/04 08:36:29;;;;;;;50.40;19.27;;;3.00;99.90;;;;;;5037937;28;20048;-78
2021/01/04 08:39:14;;;;;;;27.85;14.38;;;3.10;99.90;;;;;;5037989;28;20045;-79
2021/01/04 08:41:42;;;;;;;23.63;13.55;;;3.00;99.90;;;;;;5032961;28;20349;-79
2021/01/04 08:44:26;;;;;;;23.25;12.90;;;3.00;99.90;;;;;;5033547;28;20053;-79
2021/01/04 08:46:52;;;;;;;28.20;14.20;;;3.00;99.90;;;;;;5027166;28;20495;-78
2021/01/04 08:49:28;;;;;;;22.67;12.88;;;3.00;99.90;;;;;;5030249;28;20042;-78
2021/01/04 08:51:54;;;;;;;25.75;13.18;;;3.00;99.90;;;;;;5032684;28;20033;-79
2021/01/04 08:54:30;;;;;;;24.13;12.82;;;3.00;99.90;;;;;;5032777;28;20029;-79
2021/01/04 08:57:20;;;;;;;27.55;14.60;;;3.10;99.90;;;;;;5034806;28;20033;-80
2021/01/04 09:00:13;;;;;;;24.35;13.63;;;3.00;99.90;;;;;;5035481;28;20072;-79
2021/01/04 09:02:42;;;;;;;25.30;14.40;;;3.00;99.90;;;;;;5044645;28;20483;-79
2021/01/04 09:05:14;;;;;;;26.05;13.38;;;3.10;99.90;;;;;;5030392;28;20087;-77
2021/01/04 09:07:51;;;;;;;27.45;14.27;;;3.10;99.90;;;;;;5036247;28;20457;-79
2021/01/04 09:10:36;;;;;;;27.88;13.90;;;3.00;99.90;;;;;;5029828;28;20399;-78
2021/01/04 09:13:14;;;;;;;25.15;12.98;;;3.10;99.90;;;;;;5032281;28;20041;-78
2021/01/04 09:15:40;;;;;;;27.35;13.52;;;3.10;99.90;;;;;;5037818;28;20045;-79
2021/01/04 09:18:29;;;;;;;26.20;13.13;;;3.10;99.90;;;;;;5041704;28;20044;-79
2021/01/04 09:21:17;;;;;;;27.60;14.85;;;3.10;99.90;;;;;;5032930;28;20044;-79
2021/01/04 09:23:44;;;;;;;23.88;12.50;;;3.20;99.90;;;;;;5031322;28;20048;-79
2021/01/04 09:26:24;;;;;;;27.95;14.23;;;3.20;99.90;;;;;;5040431;28;20048;-77
2021/01/04 09:29:05;;;;;;;27.73;14.05;;;3.20;99.90;;;;;;5032627;28;20037;-81
2021/01/04 09:31:32;;;;;;;26.98;14.18;;;3.20;99.90;;;;;;5037981;28;20029;-79
2021/01/04 09:33:58;;;;;;;27.52;14.52;;;3.20;99.90;;;;;;5035225;28;20112;-79
2021/01/04 09:36:24;;;;;;;29.85;14.50;;;3.20;99.90;;;;;;5032516;28;20036;-80
2021/01/04 09:39:03;;;;;;;29.15;14.93;;;3.20;99.90;;;;;;5003510;28;20042;-78
2021/01/04 09:41:29;;;;;;;26.50;14.10;;;3.20;99.90;;;;;;5018806;28;20041;-77
2021/01/04 09:44:09;;;;;;;28.48;14.10;;;3.20;99.90;;;;;;4998024;28;20046;-78
2021/01/04 09:46:46;;;;;;;26.95;14.45;;;3.20;99.90;;;;;;5016419;28;20561;-76
2021/01/04 09:49:22;;;;;;;28.48;14.43;;;3.20;99.90;;;;;;5019764;28;20048;-77
2021/01/04 09:51:52;;;;;;;31.83;14.43;;;3.20;99.90;;;;;;5027403;28;20065;-77
2021/01/04 09:54:27;;;;;;;27.95;13.93;;;3.30;99.90;;;;;;5026595;28;20419;-76
2021/01/04 09:57:00;;;;;;;34.55;18.77;;;3.30;99.90;;;;;;5024279;28;20036;-77
2021/01/04 09:59:28;;;;;;;28.20;14.82;;;3.30;99.90;;;;;;5026405;28;20087;-77
2021/01/04 10:01:59;;;;;;;30.73;14.68;;;3.40;99.90;;;;;;5033038;28;20090;-77
2021/01/04 10:04:41;;;;;;;26.98;14.23;;;3.40;99.90;;;;;;5030387;28;20498;-77
2021/01/04 10:07:11;;;;;;;28.33;13.40;;;3.40;99.90;;;;;;5037916;28;20052;-77
2021/01/04 10:09:46;;;;;;;28.73;15.27;;;3.50;99.90;;;;;;5026127;28;20478;-77
2021/01/04 10:12:14;;;;;;;26.90;13.95;;;3.40;99.90;;;;;;5033650;28;20030;-77
2021/01/04 10:14:40;;;;;;;28.15;14.10;;;3.40;99.90;;;;;;5039143;28;20386;-77
2021/01/04 10:17:06;;;;;;;26.95;13.88;;;3.40;99.90;;;;;;5033776;28;20029;-76
2021/01/04 10:19:37;;;;;;;30.00;16.00;;;3.40;99.90;;;;;;5034104;28;20018;-77
2021/01/04 10:22:11;;;;;;;25.08;12.88;;;4.40;99.90;;;;;;5033458;28;20033;-76
2021/01/04 10:24:48;;;;;;;26.75;13.88;;;3.40;99.90;;;;;;5025823;28;20041;-78
2021/01/04 10:27:19;;;;;;;30.88;15.90;;;;;;;;;;5028775;28;20037;-79
2021/01/04 10:29:52;;;;;;;26.08;13.52;;;3.40;99.90;;;;;;5027819;28;20095;-79
2021/01/04 10:32:18;;;;;;;27.27;13.93;;;;;;;;;;5033150;28;20030;-78
2021/01/04 10:34:46;;;;;;;27.15;14.15;;;;;;;;;;5034138;28;20048;-77
2021/01/04 10:37:47;;;;;;;26.48;12.48;;;3.50;99.90;;;;;;5032917;28;20541;-78
2021/01/04 10:40:17;;;;;;;22.67;12.40;;;3.60;99.90;;;;;;5029844;28;20241;-78
2021/01/04 10:42:45;;;;;;;30.33;15.25;;;3.60;99.90;;;;;;5029527;28;20483;-77
2021/01/04 10:45:16;;;;;;;25.92;14.02;;;3.60;99.90;;;;;;5027856;28;20048;-77
2021/01/04 10:47:45;;;;;;;;;;;3.60;99.90;;;;;;5029876;28;20048;-77
2021/01/04 10:50:18;;;;;;;27.23;13.35;;;3.60;99.90;;;;;;5029811;28;20382;-77
2021/01/04 10:52:59;;;;;;;25.40;13.60;;;3.60;99.90;;;;;;5037950;28;20033;-77
2021/01/04 10:55:28;;;;;;;25.58;13.43;;;3.60;99.90;;;;;;5031561;28;20059;-78
2021/01/04 10:58:08;;;;;;;29.23;14.45;;;3.60;99.90;;;;;;5031770;28;20037;-77
2021/01/04 11:00:36;;;;;;;28.02;14.02;;;3.60;99.90;;;;;;5025951;28;20048;-79
2021/01/04 11:03:14;;;;;;;24.23;11.65;;;6.00;99.90;;;;;;5029156;28;20080;-78
2021/01/04 11:05:42;;;;;;;25.27;12.57;;;3.70;99.90;;;;;;5028297;28;20584;-77
2021/01/04 11:08:15;;;;;;;25.98;13.13;;;7.40;99.90;;;;;;5029558;28;20037;-78
2021/01/04 11:10:50;;;;;;;24.45;12.55;;;3.80;99.90;;;;;;5032735;28;20068;-79
2021/01/04 11:13:25;;;;;;;26.60;12.52;;;3.90;99.90;;;;;;5040695;28;20037;-78
2021/01/04 11:15:51;;;;;;;26.35;12.13;;;;;;;;;;5030269;28;20041;-78
2021/01/04 11:18:17;;;;;;;27.58;13.45;;;;;;;;;;5027707;28;20038;-81
2021/01/04 11:20:43;;;;;;;23.58;12.70;;;4.00;99.90;;;;;;5013034;28;20059;-78
2021/01/04 11:23:09;;;;;;;23.42;11.25;;;;;;;;;;5031509;28;20038;-79
2021/01/04 11:25:39;;;;;;;24.63;11.48;;;4.10;99.90;;;;;;5031079;28;20034;-79
2021/01/04 11:28:05;;;;;;;24.67;11.15;;;;;;;;;;5025679;28;20038;-78
2021/01/04 11:30:31;;;;;;;26.38;12.93;;;;;;;;;;5032406;28;20050;-77
2021/01/04 11:32:59;;;;;;;25.33;11.20;;;3.90;99.90;;;;;;5032570;28;20044;-77
2021/01/04 11:35:25;;;;;;;26.38;12.77;;;3.90;99.90;;;;;;5033380;28;20042;-78
2021/01/04 11:37:52;;;;;;;30.20;15.25;;;3.90;99.90;;;;;;5015712;28;20045;-78
2021/01/04 11:40:18;;;;;;;28.42;12.98;;;3.80;99.90;;;;;;5033430;28;20552;-78
2021/01/04 11:42:44;;;;;;;27.42;13.63;;;3.80;99.90;;;;;;5012037;28;20038;-78
2021/01/04 11:45:13;;;;;;;26.45;12.88;;;3.80;99.90;;;;;;5022239;28;20069;-78
2021/01/04 11:47:39;;;;;;;31.10;13.85;;;3.80;99.90;;;;;;5022559;28;20528;-78
2021/01/04 11:50:08;;;;;;;31.23;14.07;;;3.70;99.90;;;;;;5026492;28;20108;-79
2021/01/04 11:52:35;;;;;;;32.88;14.90;;;;;;;;;;5032072;28;20045;-77
2021/01/04 11:55:01;;;;;;;29.27;13.77;;;3.70;99.90;;;;;;5032820;28;20116;-78
2021/01/04 11:57:26;;;;;;;28.33;13.98;;;3.80;99.90;;;;;;5053234;28;20946;-78
2021/01/04 11:59:52;;;;;;;26.25;13.82;;;3.80;99.90;;;;;;5032678;28;20041;-78
2021/01/04 12:02:18;;;;;;;25.65;12.55;;;3.70;99.90;;;;;;5032345;28;20033;-77
2021/01/04 12:04:44;;;;;;;26.05;12.70;;;3.70;99.90;;;;;;5033182;28;20073;-77
2021/01/04 12:07:11;;;;;;;22.52;11.45;;;3.90;99.90;;;;;;5016626;28;20046;-78
2021/01/04 12:09:38;;;;;;;23.20;11.90;;;4.00;99.90;;;;;;5033231;28;20033;-78
2021/01/04 12:12:07;;;;;;;24.88;11.57;;;4.10;99.90;;;;;;5019697;28;20057;-78
2021/01/04 12:14:33;;;;;;;21.90;11.48;;;4.20;99.90;;;;;;5027576;28;20033;-77
2021/01/04 12:17:04;;;;;;;23.70;11.32;;;4.20;99.90;;;;;;5013707;28;20052;-78
2021/01/04 12:19:30;;;;;;;21.70;11.30;;;4.10;99.90;;;;;;5035359;28;20089;-78
2021/01/04 12:22:10;;;;;;;23.30;11.55;;;4.10;99.90;;;;;;5033419;28;21052;-78
2021/01/04 12:24:37;;;;;;;24.88;11.63;;;4.10;99.90;;;;;;5032605;28;20034;-79
2021/01/04 12:27:03;;;;;;;21.38;11.30;;;;;;;;;;5030741;28;20445;-78
2021/01/04 12:29:29;;;;;;;20.73;11.35;;;4.00;99.90;;;;;;5032420;28;20458;-79
2021/01/04 12:31:55;;;;;;;24.30;12.02;;;5.80;99.90;;;;;;5013436;28;20056;-78
2021/01/04 12:34:20;;;;;;;22.30;10.60;;;4.00;99.90;;;;;;5018483;28;20041;-78
2021/01/04 12:36:46;;;;;;;24.58;12.05;;;3.90;99.90;;;;;;5035264;28;20060;-77
2021/01/04 12:39:12;;;;;;;22.70;11.63;;;3.90;99.90;;;;;;5027053;28;20495;-78
2021/01/04 12:41:41;;;;;;;22.55;11.98;;;6.30;99.90;;;;;;5031438;28;20033;-79
2021/01/04 12:44:10;;;;;;;25.10;12.43;;;3.90;99.90;;;;;;5032195;28;20431;-77
2021/01/04 12:46:47;;;;;;;20.60;10.38;;;3.90;99.90;;;;;;5041674;28;20033;-78
2021/01/04 12:49:16;;;;;;;23.98;12.35;;;3.80;99.90;;;;;;5032487;28;20026;-79
2021/01/04 12:51:53;;;;;;;21.88;12.05;;;3.80;99.90;;;;;;5039443;28;20041;-79
2021/01/04 12:54:21;;;;;;;21.90;11.52;;;3.60;99.90;;;;;;5037600;28;20042;-78
2021/01/04 12:56:48;;;;;;;21.45;11.32;;;3.80;99.90;;;;;;5046115;28;20029;-76
2021/01/04 12:59:20;;;;;;;22.90;11.32;;;3.90;99.90;;;;;;5040581;28;20065;-77
2021/01/04 13:01:51;;;;;;;23.15;11.32;;;;;;;;;;5039873;28;20067;-77
2021/01/04 13:04:20;;;;;;;22.37;11.50;;;4.00;99.90;;;;;;5040493;28;20043;-78
2021/01/04 13:06:47;;;;;;;20.25;10.32;;;4.00;99.90;;;;;;5036364;28;20037;-77
2021/01/04 13:09:14;;;;;;;21.70;11.15;;;4.00;99.90;;;;;;5033928;28;20129;-76
2021/01/04 13:11:40;;;;;;;22.52;11.05;;;;;;;;;;5037250;28;20528;-78
2021/01/04 13:14:07;;;;;;;23.73;11.63;;;3.90;99.90;;;;;;5025882;28;20037;-78
2021/01/04 13:16:37;;;;;;;22.92;12.07;;;3.90;99.90;;;;;;5038665;28;20045;-77
2021/01/04 13:19:04;;;;;;;19.33;10.82;;;4.00;99.90;;;;;;5034544;28;20036;-78
2021/01/04 13:21:31;;;;;;;23.30;11.02;;;;;;;;;;5042765;28;20026;-76
2021/01/04 13:23:57;;;;;;;20.58;10.63;;;4.00;99.90;;;;;;5044209;28;20026;-77
2021/01/04 13:26:23;;;;;;;26.92;12.45;;;;;;;;;;5034564;28;20044;-76
2021/01/04 13:28:49;;;;;;;26.88;13.65;;;3.90;99.90;;;;;;5035972;28;20048;-77